Detall de PIREP

Printer-friendly versionPDF version

[2014/10/14 06:08:00]
Flight IATA:CT3224
Pilot Number:042
Company ICAO:CAT
Aircraft Type:F100/A
PAX:24
Aircraft Registration:PFJ
Departing Airport: LEPA
Destination Airport: LJLJ
Alternate Airport:LDZA
Online: VATSIM
Route:MEROS UN853 LUMAS UM985 GEN UM859 BARPI
Flight Level:F330
No Slew and time accel
No pause
Crash detect
Detect pilot in Cockpit between each 30 and 45 minutes
06:08 Zero fuel Weight: 81825 Lbs, Fuel Weight: 22652 Lbs
06:08 VATSIM:LEPA 140530Z 22009KT 180V250 9999 FEW035 22/14 Q1008 NOSIG
06:08 VATSIM:LJLJ 140600Z 00000KT 9999 FEW005 SCT070 13/12 Q1012 NOSIG
06:11 Parking Brakes off
06:15 Take-off
06:15 Take off Weight: 104030 Lbs
06:15 Wind: 219º @ 009 Knots Heading: 237º
06:15 POS N39º 33´ 08´´ E002º 43´ 17´´
06:16 Gear Up: 201 Knots
06:16 Flaps:1 at 201 Knots
06:16 Flaps:0 at 205 Knots
06:31 Wind:200º@036 Knots Heading: 063º Ground Speed: 392 Knots Altitude 27778 ft
06:37 TOC
06:37 Fuel Weight: 19621 Lb
06:46 Wind:021º@011 Knots Heading: 011º Ground Speed: 445 Knots Altitude 32854 ft
07:01 Wind:354º@095 Knots Heading: 031º Ground Speed: 371 Knots Altitude 32880 ft
07:16 Wind:309º@009 Knots Heading: 053º Ground Speed: 436 Knots Altitude 32929 ft
07:31 Wind:220º@031 Knots Heading: 088º Ground Speed: 460 Knots Altitude 32988 ft
07:42 TOD
07:42 Fuel Weight: 14600 Lb
07:46 Wind:154º@008 Knots Heading: 060º Ground Speed: 379 Knots Altitude 26814 ft
08:01 Wind:134º@000 Knots Heading: 060º Ground Speed: 258 Knots Altitude 10439 ft
08:07 Flaps:1 at 193 Knots
08:11 Flaps:2 at 180 Knots
08:12 Gear Down: 179 Knots
08:12 Flaps:3 at 179 Knots
08:14 TouchDown:Rate -582 ft/min Speed: 154 Knots
08:15 VATSIM:LJLJ 140800Z 00000KT 9999 FEW007 SCT070 18/16 Q1013 NOSIG
08:15 Land
08:15 Wind:294º@000 Knots
08:15 Heading: 306º
08:15 Flight Duration: 01:59
08:15 Landing Weight: 95157 Lbs
08:15 POS N46º 13´ 18´´ E014º 27´ 40´´
08:16 Parking brakes on
08:16 Block to Block Duration: 02:05
08:16 Final Fuel: 13242 Lbls
08:16 Spent Fuel: 9409 Lbls
08:16 Flight Length: 746 NM
08:16 TOD Land Length: 154 NM

Exportar CSV

Powered by Drupal - Modified by Danger4k